.
WxDataArchive / Data Records for 2012-10-07
2012-10-06 October 2012 2012-10-08

Data Records for Sunday, 07 October 2012

Time	Temp	Chill	HIndex	Humid	Dewpt	 Wind 	HiWind	WindDir	Rain 	Barom 
-----	----	-----	------	-----	-----	------	------	-------	-----	----- 
00:00	43.6	43.6	43.6	70	34.5	0	0	---	0.00	30.140 
00:05	43.6	43.6	43.6	71	34.8	0	0	---	0.00	30.140 
00:10	43.6	43.6	43.6	71	34.8	0	0	---	0.00	30.140 
00:15	43.5	43.5	43.5	70	34.4	0	0	---	0.00	30.139 
00:20	43.5	43.5	43.5	71	34.7	0	0	---	0.00	30.139 
00:25	43.5	43.5	43.5	71	34.7	0	0	---	0.00	30.139 
00:30	43.5	43.5	43.5	72	35.1	0	0	---	0.00	30.139 
00:35	43.3	43.3	43.3	72	34.9	0	0	---	0.00	30.139 
00:40	43.3	43.3	43.3	72	34.9	0	0	---	0.00	30.139 
00:45	43.3	43.3	43.3	72	34.9	0	0	---	0.00	30.138 
00:50	43.3	43.3	43.3	73	35.2	0	0	---	0.00	30.138 
00:55	43.2	43.2	43.2	73	35.1	0	0	---	0.00	30.138 
01:00	43.2	43.2	43.2	73	35.1	0	0	---	0.00	30.137 
01:05	43.2	43.2	43.2	73	35.1	0	0	---	0.00	30.137 
01:10	43.1	43.1	43.1	73	35.0	0	0	---	0.00	30.137 
01:15	43.1	43.1	43.1	73	35.0	0	0	---	0.00	30.130 
01:20	42.9	42.9	42.9	74	35.2	0	0	---	0.00	30.130 
01:25	42.9	42.9	42.9	73	34.9	0	0	---	0.00	30.130 
01:30	42.8	42.8	42.8	73	34.8	0	0	---	0.00	30.127 
01:35	42.8	42.8	42.8	73	34.8	0	0	---	0.00	30.127 
01:40	42.8	42.8	42.8	73	34.8	0	0	---	0.00	30.127 
01:45	42.8	42.8	42.8	73	34.8	0	0	---	0.00	30.124 
01:50	42.8	42.8	42.8	73	34.8	0	0	---	0.00	30.124 
01:55	42.8	42.8	42.8	73	34.8	0	0	---	0.00	30.124 
02:00	42.6	42.6	42.6	74	34.9	0	0	---	0.00	30.125 
02:05	42.5	42.5	42.5	74	34.8	0	0	---	0.00	30.125 
02:10	42.5	42.5	42.5	74	34.8	0	0	---	0.00	30.125 
02:15	42.3	42.3	42.3	75	35.0	0	0	---	0.00	30.125 
02:20	42.3	42.3	42.3	75	35.0	0	0	---	0.00	30.125 
02:25	42.2	42.2	42.2	75	34.9	0	0	---	0.00	30.125 
02:30	42.1	42.1	42.1	75	34.8	0	0	---	0.00	30.125 
02:35	42.1	42.1	42.1	75	34.8	0	0	---	0.00	30.125 
02:40	41.9	41.9	41.9	75	34.6	0	0	---	0.00	30.125 
02:45	41.8	41.8	41.8	76	34.8	0	0	---	0.00	30.125 
02:50	41.8	41.8	41.8	76	34.8	0	0	---	0.00	30.125 
02:55	41.6	41.6	41.6	77	34.9	0	0	---	0.00	30.125 
03:00	41.5	41.5	41.5	78	35.2	0	0	---	0.00	30.124 
03:05	41.3	41.3	41.3	78	35.0	0	0	---	0.00	30.124 
03:10	41.2	41.2	41.2	79	35.2	0	0	---	0.00	30.124 
03:15	41.1	41.1	41.1	79	35.1	0	0	---	0.00	30.123 
03:20	40.8	40.8	40.8	80	35.1	0	0	---	0.00	30.123 
03:25	40.6	40.6	40.6	81	35.2	0	0	---	0.00	30.123 
03:30	40.5	40.5	40.5	81	35.1	0	0	---	0.00	30.114 
03:35	40.2	40.2	40.2	81	34.8	0	0	---	0.00	30.114 
03:40	40.1	40.1	40.1	82	35.1	0	0	---	0.00	30.114 
03:45	39.9	39.9	39.9	82	34.9	0	0	---	0.00	30.113 
03:50	39.6	39.6	39.6	83	34.9	0	0	---	0.00	30.113 
03:55	39.5	39.5	39.5	83	34.8	0	0	---	0.00	30.113 
04:00	39.3	39.3	39.3	84	34.9	0	0	---	0.00	30.112 
04:05	39.2	39.2	39.2	84	34.8	0	0	---	0.00	30.112 
04:10	39.1	39.1	39.1	84	34.7	0	0	---	0.00	30.112 
04:15	38.8	38.8	38.8	85	34.7	0	0	---	0.00	30.110 
04:20	38.6	38.6	38.6	85	34.5	0	0	---	0.00	30.110 
04:25	38.6	38.6	38.6	85	34.5	0	0	---	0.00	30.110 
04:30	38.5	38.5	38.5	86	34.7	0	0	---	0.00	30.110 
04:35	38.5	38.5	38.5	86	34.7	0	0	---	0.00	30.110 
04:40	38.3	38.3	38.3	86	34.5	0	0	---	0.00	30.110 
04:45	38.3	38.3	38.3	87	34.8	0	0	---	0.00	30.113 
04:50	38.3	38.3	38.3	87	34.8	0	0	---	0.00	30.113 
04:55	38.3	38.3	38.3	87	34.8	0	0	---	0.00	30.113 
05:00	38.3	38.3	38.3	88	35.1	0	0	---	0.00	30.115 
05:05	38.3	38.3	38.3	88	35.1	0	0	---	0.00	30.115 
05:10	38.5	38.5	38.5	88	35.3	0	0	---	0.00	30.115 
05:15	38.6	38.6	38.6	88	35.4	0	0	---	0.00	30.112 
05:20	38.9	38.9	38.9	88	35.7	0	0	---	0.00	30.112 
05:25	39.1	39.1	39.1	88	35.9	0	0	---	0.00	30.112 
05:30	39.3	39.3	39.3	88	36.0	0	0	---	0.00	30.113 
05:35	39.5	39.5	39.5	88	36.2	0	0	---	0.00	30.113 
05:40	39.5	39.5	39.5	87	36.0	0	0	---	0.00	30.113 
05:45	39.6	39.6	39.6	87	36.1	0	0	---	0.00	30.111 
05:50	39.6	39.6	39.6	87	36.1	0	0	---	0.00	30.111 
05:55	39.6	39.6	39.6	87	36.1	0	1	338	0.00	30.111 
06:00	39.8	39.8	39.8	87	36.3	0	0	---	0.00	30.111 
06:05	39.9	39.9	39.9	87	36.4	0	0	---	0.00	30.111 
06:10	39.9	39.9	39.9	87	36.4	0	0	---	0.00	30.111 
06:15	39.9	39.9	39.9	87	36.4	0	0	---	0.00	30.112 
06:20	39.9	39.9	39.9	87	36.4	0	0	---	0.00	30.112 
06:25	39.9	39.9	39.9	86	36.1	0	0	---	0.00	30.112 
06:30	39.9	39.9	39.9	86	36.1	0	0	---	0.00	30.107 
06:35	39.9	39.9	39.9	86	36.1	0	0	---	0.00	30.107 
06:40	39.9	39.9	39.9	86	36.1	0	0	---	0.00	30.107 
06:45	39.9	39.9	39.9	85	35.8	0	0	---	0.00	30.105 
06:50	39.9	39.9	39.9	85	35.8	0	0	---	0.00	30.105 
06:55	39.9	39.9	39.9	85	35.8	0	0	---	0.00	30.105 
07:00	39.9	39.9	39.9	85	35.8	0	0	---	0.00	30.105 
07:05	39.8	39.8	39.8	85	35.7	0	0	---	0.00	30.105 
07:10	39.8	39.8	39.8	85	35.7	0	0	---	0.00	30.105 
07:15	39.8	39.8	39.8	85	35.7	0	0	---	0.00	30.108 
07:20	39.8	39.8	39.8	85	35.7	0	0	---	0.00	30.108 
07:25	39.8	39.8	39.8	85	35.7	0	0	---	0.00	30.108 
07:30	39.8	39.8	39.8	85	35.7	0	0	---	0.00	30.111 
07:35	39.8	39.8	39.8	85	35.7	0	0	---	0.00	30.111 
07:40	39.8	39.8	39.8	85	35.7	0	0	---	0.00	30.111 
07:45	39.8	39.8	39.8	85	35.7	0	0	---	0.00	30.113 
07:50	39.8	39.8	39.8	85	35.7	0	0	---	0.00	30.113 
07:55	39.8	39.8	39.8	85	35.7	0	0	---	0.00	30.113 
08:00	39.8	39.8	39.8	84	35.4	0	0	---	0.00	30.115 
08:05	39.9	39.9	39.9	85	35.8	0	0	---	0.00	30.115 
08:10	39.9	39.9	39.9	85	35.8	0	0	---	0.00	30.115 
08:15	39.9	39.9	39.9	85	35.8	0	0	---	0.00	30.116 
08:20	40.1	40.1	40.1	84	35.7	0	0	---	0.00	30.116 
08:25	40.1	40.1	40.1	84	35.7	0	0	---	0.00	30.116 
08:30	40.2	40.2	40.2	84	35.8	0	0	---	0.00	30.118 
08:35	40.2	40.2	40.2	84	35.8	0	0	---	0.00	30.118 
08:40	40.3	40.3	40.3	83	35.6	0	0	---	0.00	30.118 
08:45	40.5	40.5	40.5	82	35.4	0	0	---	0.00	30.118 
08:50	40.6	40.6	40.6	81	35.2	0	0	---	0.00	30.118 
08:55	40.8	40.8	40.8	81	35.4	0	0	---	0.00	30.118 
09:00	40.9	40.9	40.9	81	35.5	0	0	---	0.00	30.125 
09:05	41.1	41.1	41.1	80	35.4	0	1	338	0.00	30.125 
09:10	41.2	41.2	41.2	79	35.2	0	1	338	0.00	30.125 
09:15	41.3	41.3	41.3	79	35.3	0	0	---	0.00	30.128 
09:20	41.5	41.5	41.5	78	35.2	0	1	338	0.00	30.128 
09:25	41.5	41.5	41.5	77	34.8	0	1	338	0.00	30.128 
09:30	41.6	41.6	41.6	76	34.6	0	1	338	0.00	30.127 
09:35	41.8	41.8	41.8	77	35.1	0	1	338	0.00	30.127 
09:40	41.9	41.9	41.9	76	34.9	0	1	338	0.00	30.127 
09:45	41.9	41.9	41.9	76	34.9	0	0	---	0.00	30.128 
09:50	42.1	42.1	42.1	76	35.1	0	1	338	0.00	30.128 
09:55	42.1	42.1	42.1	76	35.1	0	0	---	0.00	30.128 
10:00	42.2	42.2	42.2	75	34.9	0	1	338	0.00	30.128 
10:05	42.5	42.5	42.5	75	35.1	0	0	---	0.00	30.128 
10:10	42.6	42.6	42.6	75	35.2	0	1	338	0.00	30.128 
10:15	42.8	42.8	42.8	74	35.1	0	1	338	0.00	30.131 
10:20	42.9	42.9	42.9	74	35.2	0	1	338	0.00	30.131 
10:25	43.1	43.1	43.1	74	35.4	0	1	338	0.00	30.131 
10:30	43.3	43.3	43.3	73	35.2	0	0	---	0.00	30.135 
10:35	43.6	43.6	43.6	74	35.9	0	1	338	0.00	30.135 
10:40	43.8	43.8	43.8	73	35.7	0	1	338	0.00	30.135 
10:45	43.9	43.9	43.9	73	35.8	0	1	338	0.00	30.134 
10:50	44.2	44.2	44.2	72	35.8	0	1	338	0.00	30.134 
10:55	44.3	44.3	44.3	72	35.9	0	1	338	0.00	30.134 
11:00	44.6	44.6	44.6	71	35.8	0	1	338	0.00	30.137 
11:05	44.8	44.8	44.8	70	35.6	0	2	338	0.00	30.137 
11:10	44.8	44.8	44.8	69	35.3	0	2	338	0.00	30.137 
11:15	45.1	45.1	45.1	68	35.2	0	3	338	0.00	30.135 
11:20	45.1	45.1	45.1	68	35.2	0	1	338	0.00	30.135 
11:25	45.2	45.2	45.2	67	34.9	1	3	248	0.00	30.135 
11:30	45.2	45.2	45.2	67	34.9	0	2	248	0.00	30.137 
11:35	45.5	45.5	45.5	67	35.2	0	2	248	0.00	30.137 
11:40	45.7	45.7	45.7	66	35.0	0	3	315	0.00	30.137 
11:45	46.1	46.1	46.1	66	35.4	0	1	315	0.00	30.140 
11:50	46.2	46.2	46.2	65	35.1	0	3	315	0.00	30.140 
11:55	46.5	46.5	46.5	65	35.4	0	1	315	0.00	30.140 
12:00	46.8	46.8	46.8	65	35.7	0	2	315	0.00	30.139 
12:05	46.8	46.8	46.8	62	34.5	1	4	315	0.00	30.139 
12:10	46.8	46.8	46.8	61	34.1	1	3	315	0.00	30.139 
12:15	47.1	47.1	47.1	61	34.4	0	2	315	0.00	30.140 
12:20	47.3	47.3	47.3	55	32.0	1	4	270	0.00	30.140 
12:25	47.4	47.4	47.4	54	31.6	2	4	270	0.00	30.140 
12:30	47.4	47.4	47.4	53	31.1	2	5	270	0.00	30.141 
12:35	48.0	48.0	48.0	54	32.2	1	4	270	0.00	30.141 
12:40	48.3	48.3	48.3	51	31.0	1	3	270	0.00	30.141 
12:45	48.6	48.6	48.6	51	31.3	1	4	270	0.00	30.139 
12:50	48.9	48.9	48.9	51	31.6	1	4	270	0.00	30.139 
12:55	49.2	49.2	49.2	50	31.4	0	3	270	0.00	30.139 
13:00	49.1	49.1	49.1	48	30.3	1	3	270	0.00	30.140 
13:05	49.1	49.1	49.1	50	31.3	1	3	270	0.00	30.140 
13:10	48.9	48.9	48.9	47	29.6	1	5	270	0.00	30.140 
13:15	49.1	49.1	49.1	48	30.3	0	2	292	0.00	30.137 
13:20	49.2	49.2	49.2	48	30.4	0	3	292	0.00	30.137 
13:25	49.5	49.5	49.5	49	31.1	1	4	292	0.00	30.137 
13:30	49.4	49.4	49.4	47	30.0	2	6	270	0.00	30.134 
13:35	49.4	49.4	49.4	49	31.0	1	3	270	0.00	30.134 
13:40	49.6	49.6	49.6	49	31.2	1	3	315	0.00	30.134 
13:45	49.6	49.6	49.6	49	31.2	1	3	248	0.00	30.132 
13:50	49.8	49.8	49.8	49	31.4	1	3	248	0.00	30.132 
13:55	49.8	49.8	49.8	48	30.9	1	4	248	0.00	30.132 
14:00	49.8	49.8	49.8	49	31.4	1	4	248	0.00	30.124 
14:05	50.2	50.2	50.2	49	31.8	1	3	270	0.00	30.124 
14:10	50.5	50.5	50.5	50	32.6	1	3	270	0.00	30.124 
14:15	50.7	50.7	50.7	49	32.2	1	3	315	0.00	30.116 
14:20	50.8	50.8	50.8	48	31.8	0	2	315	0.00	30.116 
14:25	51.0	51.0	51.0	47	31.5	1	5	248	0.00	30.116 
14:30	50.8	50.8	50.8	47	31.3	1	2	248	0.00	30.110 
14:35	51.0	51.0	51.0	48	32.0	1	3	270	0.00	30.110 
14:40	50.5	50.5	50.5	48	31.5	2	5	270	0.00	30.110 
14:45	50.1	50.1	50.1	49	31.7	1	4	270	0.00	30.108 
14:50	49.6	49.6	49.6	49	31.2	2	4	270	0.00	30.108 
14:55	49.5	49.5	49.5	50	31.6	1	4	270	0.00	30.108 
15:00	49.4	49.4	49.4	50	31.5	1	4	270	0.00	30.111 
15:05	49.4	49.4	49.4	50	31.5	1	3	270	0.00	30.111 
15:10	49.4	49.4	49.4	50	31.5	1	3	270	0.00	30.111 
15:15	49.4	49.4	49.4	49	31.0	1	2	225	0.00	30.111 
15:20	49.5	49.5	49.5	49	31.1	1	3	248	0.00	30.111 
15:25	49.6	49.6	49.6	50	31.7	1	3	248	0.00	30.111 
15:30	49.6	49.6	49.6	49	31.2	1	3	248	0.00	30.111 
15:35	49.8	49.8	49.8	49	31.4	0	2	248	0.00	30.111 
15:40	49.8	49.8	49.8	49	31.4	1	4	270	0.00	30.111 
15:45	49.8	49.8	49.8	49	31.4	2	5	270	0.00	30.111 
15:50	49.8	49.8	49.8	49	31.4	1	3	270	0.00	30.111 
15:55	49.9	49.9	49.9	49	31.5	1	4	270	0.00	30.111 
16:00	49.8	49.8	49.8	50	31.9	1	4	270	0.00	30.112 
16:05	49.8	49.8	49.8	50	31.9	1	3	338	0.00	30.112 
16:10	49.6	49.6	49.6	51	32.2	1	4	292	0.00	30.112 
16:15	49.4	49.4	49.4	51	32.0	2	4	292	0.00	30.112 
16:20	49.1	49.1	49.1	51	31.8	2	4	270	0.00	30.112 
16:25	48.9	48.9	48.9	51	31.6	2	4	270	0.00	30.112 
16:30	48.8	48.8	48.8	51	31.5	1	4	270	0.00	30.114 
16:35	48.8	48.8	48.8	53	32.4	0	2	270	0.00	30.114 
16:40	48.8	48.8	48.8	53	32.4	1	3	292	0.00	30.114 
16:45	48.8	48.8	48.8	53	32.4	2	4	292	0.00	30.113 
16:50	48.8	48.8	48.8	55	33.4	2	4	292	0.00	30.113 
16:55	48.8	48.8	48.8	58	34.7	1	4	315	0.00	30.113 
17:00	48.5	48.5	48.5	59	34.8	2	4	315	0.00	30.115 
17:05	48.3	48.3	48.3	60	35.1	1	4	292	0.00	30.115 
17:10	48.2	48.2	48.2	60	35.0	2	4	292	0.00	30.115 
17:15	48.0	48.0	48.0	60	34.8	2	4	292	0.00	30.115 
17:20	47.9	47.9	47.9	61	35.1	1	4	270	0.00	30.115 
17:25	47.9	47.9	47.9	61	35.1	2	5	292	0.00	30.115 
17:30	47.7	47.7	47.7	60	34.5	1	2	292	0.00	30.117 
17:35	47.7	47.7	47.7	60	34.5	1	4	270	0.00	30.117 
17:40	47.6	47.6	47.6	59	34.0	2	5	270	0.00	30.117 
17:45	47.6	47.6	47.6	61	34.8	1	5	315	0.00	30.123 
17:50	47.4	47.4	47.4	62	35.0	1	5	270	0.00	30.123 
17:55	47.3	47.3	47.3	62	34.9	1	2	270	0.00	30.123 
18:00	47.3	47.3	47.3	64	35.7	0	2	270	0.00	30.129 
18:05	47.1	47.1	47.1	63	35.2	1	3	270	0.00	30.129 
18:10	47.1	47.1	47.1	64	35.6	0	2	270	0.00	30.129 
18:15	47.0	47.0	47.0	64	35.5	1	4	270	0.00	30.139 
18:20	47.0	47.0	47.0	64	35.5	0	1	270	0.00	30.139 
18:25	46.8	46.8	46.8	65	35.7	0	2	270	0.00	30.139 
18:30	46.7	46.7	46.7	64	35.2	1	2	270	0.00	30.144 
18:35	46.4	46.4	46.4	64	34.9	1	3	270	0.00	30.144 
18:40	46.2	46.2	46.2	64	34.7	0	3	270	0.00	30.144 
18:45	46.1	46.1	46.1	65	35.0	1	5	292	0.00	30.145 
18:50	45.7	45.7	45.7	66	35.0	2	4	292	0.00	30.145 
18:55	45.4	45.4	45.4	67	35.1	1	4	270	0.00	30.145 
19:00	45.2	45.2	45.2	67	34.9	0	2	270	0.00	30.150 
19:05	44.9	44.9	44.9	69	35.4	1	3	270	0.00	30.150 
19:10	44.6	44.6	44.6	70	35.4	1	3	292	0.00	30.150 
19:15	44.5	44.5	44.5	71	35.7	0	3	292	0.00	30.150 
19:20	44.3	44.3	44.3	71	35.5	0	3	292	0.00	30.150 
19:25	44.1	44.1	44.1	72	35.7	0	2	292	0.00	30.150 
19:30	43.9	43.9	43.9	72	35.5	0	2	292	0.00	30.149 
19:35	43.8	43.8	43.8	72	35.4	0	2	292	0.00	30.149 
19:40	43.8	43.8	43.8	73	35.7	0	1	292	0.00	30.149 
19:45	43.6	43.6	43.6	73	35.5	0	1	292	0.00	30.151 
19:50	43.6	43.6	43.6	73	35.5	0	1	292	0.00	30.151 
19:55	43.5	43.5	43.5	74	35.8	0	1	292	0.00	30.151 
20:00	43.5	43.5	43.5	74	35.8	0	1	292	0.00	30.150 
20:05	43.5	43.5	43.5	74	35.8	0	1	292	0.00	30.150 
20:10	43.5	43.5	43.5	74	35.8	0	0	---	0.00	30.150 
20:15	43.5	43.5	43.5	74	35.8	0	1	292	0.00	30.161 
20:20	43.5	43.5	43.5	74	35.8	0	0	---	0.00	30.161 
20:25	43.5	43.5	43.5	74	35.8	0	1	292	0.00	30.161 
20:30	43.5	43.5	43.5	74	35.8	0	0	---	0.00	30.162 
20:35	43.3	43.3	43.3	74	35.6	0	1	292	0.00	30.162 
20:40	43.3	43.3	43.3	74	35.6	0	1	292	0.00	30.162 
20:45	43.3	43.3	43.3	74	35.6	0	0	---	0.00	30.164 
20:50	43.2	43.2	43.2	74	35.5	0	0	---	0.00	30.164 
20:55	43.2	43.2	43.2	75	35.8	0	0	---	0.00	30.164 
21:00	43.1	43.1	43.1	75	35.7	0	0	---	0.00	30.173 
21:05	42.9	42.9	42.9	76	35.9	0	0	---	0.00	30.173 
21:10	42.8	42.8	42.8	76	35.8	0	0	---	0.00	30.173 
21:15	42.8	42.8	42.8	76	35.8	0	0	---	0.00	30.177 
21:20	42.6	42.6	42.6	77	35.9	0	0	---	0.00	30.177 
21:25	42.3	42.3	42.3	77	35.6	0	0	---	0.00	30.177 
21:30	42.2	42.2	42.2	77	35.5	0	0	---	0.00	30.178 
21:35	41.9	41.9	41.9	77	35.2	0	0	---	0.00	30.178 
21:40	41.8	41.8	41.8	78	35.5	0	0	---	0.00	30.178 
21:45	41.5	41.5	41.5	78	35.2	0	0	---	0.00	30.184 
21:50	41.3	41.3	41.3	79	35.3	0	0	---	0.00	30.184 
21:55	41.2	41.2	41.2	79	35.2	0	0	---	0.00	30.184 
22:00	41.2	41.2	41.2	80	35.5	0	0	---	0.00	30.190 
22:05	41.2	41.2	41.2	80	35.5	0	0	---	0.00	30.190 
22:10	41.2	41.2	41.2	81	35.8	0	0	---	0.00	30.190 
22:15	41.3	41.3	41.3	81	35.9	0	0	---	0.00	30.185 
22:20	41.5	41.5	41.5	81	36.1	0	0	---	0.00	30.185 
22:25	41.6	41.6	41.6	80	35.9	0	0	---	0.00	30.185 
22:30	41.6	41.6	41.6	80	35.9	0	0	---	0.00	30.181 
22:35	41.8	41.8	41.8	79	35.8	0	0	---	0.00	30.181 
22:40	41.8	41.8	41.8	79	35.8	0	0	---	0.00	30.181 
22:45	41.9	41.9	41.9	78	35.5	0	0	---	0.00	30.178 
22:50	41.9	41.9	41.9	78	35.5	0	0	---	0.00	30.178 
22:55	41.9	41.9	41.9	78	35.5	0	0	---	0.00	30.178 
23:00	41.9	41.9	41.9	78	35.5	0	0	---	0.00	30.175 
23:05	41.9	41.9	41.9	78	35.5	0	0	---	0.00	30.175 
23:10	41.9	41.9	41.9	78	35.5	0	0	---	0.00	30.175 
23:15	41.9	41.9	41.9	78	35.5	0	0	---	0.00	30.174 
23:20	41.9	41.9	41.9	79	35.9	0	0	---	0.00	30.174 
23:25	41.8	41.8	41.8	78	35.5	0	0	---	0.00	30.174 
23:30	41.8	41.8	41.8	79	35.8	0	0	---	0.00	30.171 
23:35	41.8	41.8	41.8	79	35.8	0	0	---	0.00	30.171 
23:40	41.8	41.8	41.8	79	35.8	0	0	---	0.00	30.171 
23:45	41.6	41.6	41.6	80	35.9	0	0	---	0.00	30.172 
23:50	41.6	41.6	41.6	80	35.9	0	0	---	0.00	30.172 
23:55	41.5	41.5	41.5	80	35.8	0	0	---	0.00	30.172 

CoCoRaHS
IN-AL-39
A2 Web Hosting
Creative Commons License
GoDaddy
search engine by freefind advanced

loaded 2018-11-13 21:32:28 • last modified 2010-11-18 10:43:29
Privacy PolicyDisclaimer
• wx.awcolley.com is powered by PmWiki v.2002016 •
• all content (unless otherwise noted) © 2018 A W Colley